Time;durP1;ratioP1;P1;durP2;ratioP2;P2;SDS_P1;SDS_P2;PMS_P1;PMS_P2;Temp;Humidity;BMP_temperature;BMP_pressure;BME280_temperature;BME280_humidity;BME280_pressure;Samples;Min_cycle;Max_cycle;Signal;HPM_P1;HPM_P2
2023/05/24 00:02:26;;;;;;;9.00;1.85;;;10.30;99.90;;;;;;5055458;28;20107;-79
2023/05/24 00:04:53;;;;;;;7.93;2.35;;;10.30;99.90;;;;;;5038783;28;20072;-79
2023/05/24 00:07:21;;;;;;;5.63;2.10;;;10.40;99.90;;;;;;5056302;28;20040;-78
2023/05/24 00:09:48;;;;;;;8.85;2.30;;;10.40;99.90;;;;;;5038172;28;20037;-78
2023/05/24 00:12:15;;;;;;;9.25;2.25;;;10.50;99.90;;;;;;5054544;28;20106;-79
2023/05/24 00:14:42;;;;;;;5.03;1.90;;;10.50;99.90;;;;;;5037910;28;20044;-78
2023/05/24 00:17:11;;;;;;;7.82;2.17;;;10.50;99.90;;;;;;5037673;28;20049;-78
2023/05/24 00:19:38;;;;;;;7.88;2.50;;;10.60;99.90;;;;;;5038513;28;20091;-79
2023/05/24 00:22:05;;;;;;;8.95;2.05;;;10.60;99.90;;;;;;5055872;28;20467;-80
2023/05/24 00:24:32;;;;;;;7.63;1.98;;;10.70;99.90;;;;;;5055568;28;20048;-79
2023/05/24 00:27:00;;;;;;;6.18;2.22;;;10.70;99.90;;;;;;5038265;28;20368;-80
2023/05/24 00:29:27;;;;;;;8.35;2.08;;;10.70;99.90;;;;;;5021179;28;20372;-79
2023/05/24 00:31:58;;;;;;;7.63;2.10;;;10.80;99.90;;;;;;5054554;28;20333;-79
2023/05/24 00:34:25;;;;;;;6.10;1.73;;;10.80;99.90;;;;;;5037643;28;20049;-79
2023/05/24 00:36:52;;;;;;;5.90;1.65;;;10.90;99.90;;;;;;5054527;28;20037;-79
2023/05/24 00:39:19;;;;;;;5.93;2.05;;;11.00;99.90;;;;;;5038309;28;20440;-79
2023/05/24 00:41:46;;;;;;;6.20;1.67;;;11.00;99.90;;;;;;5065692;28;20135;-79
2023/05/24 00:44:12;;;;;;;7.68;1.90;;;11.00;99.90;;;;;;5074409;28;20371;-79
2023/05/24 00:46:39;;;;;;;5.60;1.90;;;11.10;99.90;;;;;;5074422;28;20045;-78
2023/05/24 00:49:07;;;;;;;9.02;1.90;;;11.10;99.90;;;;;;5050015;28;20087;-79
2023/05/24 00:51:35;;;;;;;10.57;2.40;;;11.20;99.90;;;;;;5054470;28;20064;-79
2023/05/24 00:54:02;;;;;;;6.93;1.80;;;11.20;99.90;;;;;;5054394;28;20456;-80
2023/05/24 00:59:15;;;;;;;9.15;1.85;;;11.30;99.90;;;;;;5054373;28;20056;-79
2023/05/24 01:01:45;;;;;;;8.63;2.00;;;11.30;99.90;;;;;;5055258;28;20529;-79
2023/05/24 01:04:13;;;;;;;13.25;2.50;;;11.30;99.90;;;;;;5053154;28;20045;-79
2023/05/24 01:06:43;;;;;;;6.85;2.30;;;11.40;99.90;;;;;;5055196;28;20081;-78
2023/05/24 01:09:11;;;;;;;9.05;2.25;;;11.40;99.90;;;;;;5053312;28;20473;-78
2023/05/24 01:11:39;;;;;;;11.00;2.10;;;11.50;99.90;;;;;;5037602;28;20490;-79
2023/05/24 01:14:06;;;;;;;5.80;1.88;;;11.50;99.90;;;;;;5053872;28;20064;-79
2023/05/24 01:16:34;;;;;;;5.72;2.20;;;11.50;99.90;;;;;;5053438;28;20132;-80
2023/05/24 01:19:00;;;;;;;5.78;1.95;;;11.50;99.90;;;;;;5053970;28;20052;-80
2023/05/24 01:21:27;;;;;;;6.47;2.13;;;11.50;99.90;;;;;;5054828;28;20380;-80
2023/05/24 01:23:54;;;;;;;8.25;2.53;;;11.60;99.90;;;;;;5054103;28;20467;-80
2023/05/24 01:26:22;;;;;;;7.65;2.15;;;11.60;99.90;;;;;;5053725;28;20090;-80
2023/05/24 01:28:50;;;;;;;11.07;2.60;;;11.60;99.90;;;;;;5053218;28;20055;-80
2023/05/24 01:31:16;;;;;;;11.68;2.20;;;11.60;99.90;;;;;;5054512;28;20071;-80
2023/05/24 01:33:43;;;;;;;7.25;2.15;;;11.60;99.90;;;;;;5054704;28;20041;-80
2023/05/24 01:38:58;;;;;;;7.05;2.10;;;11.50;99.90;;;;;;5053783;28;20044;-80
2023/05/24 01:41:25;;;;;;;6.80;1.70;;;11.50;99.90;;;;;;5053482;28;20144;-80
2023/05/24 01:43:52;;;;;;;10.50;2.45;;;11.40;99.90;;;;;;5052639;28;20041;-80
2023/05/24 01:46:21;;;;;;;6.07;1.85;;;11.40;99.90;;;;;;5053603;28;20033;-79
2023/05/24 01:48:48;;;;;;;7.70;1.55;;;11.30;99.90;;;;;;5052901;28;20349;-79
2023/05/24 01:51:15;;;;;;;6.90;1.77;;;11.20;99.90;;;;;;5054588;28;20037;-79
2023/05/24 01:53:41;;;;;;;8.68;1.90;;;11.10;99.90;;;;;;5037149;28;20368;-78
2023/05/24 01:56:08;;;;;;;6.85;2.03;;;11.00;99.90;;;;;;5035999;28;20465;-78
2023/05/24 01:58:36;;;;;;;6.70;2.03;;;11.00;99.90;;;;;;5054574;28;20048;-79
2023/05/24 02:01:03;;;;;;;8.38;1.70;;;10.90;99.90;;;;;;5053398;28;20076;-79
2023/05/24 02:03:30;;;;;;;6.90;1.70;;;10.80;99.90;;;;;;5053460;28;20357;-78
2023/05/24 02:05:56;;;;;;;5.43;1.65;;;10.70;99.90;;;;;;5053163;28;20059;-80
2023/05/24 02:08:23;;;;;;;4.72;1.52;;;10.70;99.90;;;;;;5053407;28;20045;-79
2023/05/24 02:10:50;;;;;;;8.70;2.42;;;10.60;99.90;;;;;;5052521;28;20095;-80
2023/05/24 02:13:18;;;;;;;6.10;1.80;;;10.50;99.90;;;;;;5054331;28;20045;-79
2023/05/24 02:15:46;;;;;;;6.25;1.70;;;10.50;99.90;;;;;;5053247;28;20099;-79
2023/05/24 02:21:01;;;;;;;4.97;1.80;;;10.40;99.90;;;;;;5054678;28;20056;-78
2023/05/24 02:23:28;;;;;;;9.05;1.42;;;10.40;99.90;;;;;;5053370;28;20037;-78
2023/05/24 02:25:54;;;;;;;5.60;1.75;;;10.30;99.90;;;;;;5054082;28;20076;-81
2023/05/24 02:28:21;;;;;;;6.75;1.83;;;10.30;99.90;;;;;;5054178;28;20055;-81
2023/05/24 02:30:48;;;;;;;6.95;1.80;;;10.20;99.90;;;;;;5053387;28;20083;-79
2023/05/24 02:33:14;;;;;;;7.55;1.65;;;10.20;99.90;;;;;;5054140;28;20058;-80
2023/05/24 02:35:41;;;;;;;5.93;1.92;;;10.10;99.90;;;;;;5052106;28;20521;-80
2023/05/24 02:38:09;;;;;;;8.25;1.73;;;10.10;99.90;;;;;;5036658;28;20068;-81
2023/05/24 02:40:36;;;;;;;6.68;1.90;;;10.00;99.90;;;;;;5048391;28;20050;-80
2023/05/24 02:43:03;;;;;;;5.60;1.60;;;10.00;99.90;;;;;;4999453;28;20046;-80
2023/05/24 02:45:29;;;;;;;5.10;1.85;;;10.00;99.90;;;;;;5016459;28;20136;-79
2023/05/24 02:47:56;;;;;;;4.38;1.45;;;10.00;99.90;;;;;;5016651;28;20046;-80
2023/05/24 02:50:23;;;;;;;6.80;1.60;;;10.00;99.90;;;;;;5033402;28;20056;-80
2023/05/24 02:52:50;;;;;;;7.20;1.92;;;9.90;99.90;;;;;;5036892;28;20361;-79
2023/05/24 02:55:17;;;;;;;7.72;1.58;;;9.90;99.90;;;;;;5036437;28;20045;-79
2023/05/24 02:57:46;;;;;;;5.28;1.65;;;9.90;99.90;;;;;;5039129;28;20052;-80
2023/05/24 03:00:13;;;;;;;5.65;1.80;;;9.90;99.90;;;;;;5039973;28;20041;-79
2023/05/24 03:02:42;;;;;;;9.27;2.13;;;9.80;99.90;;;;;;5038838;28;20118;-81
2023/05/24 03:05:09;;;;;;;5.78;1.60;;;9.80;99.90;;;;;;5039669;28;20052;-80
2023/05/24 03:07:38;;;;;;;3.97;1.40;;;9.80;99.90;;;;;;5040091;28;20056;-80
2023/05/24 03:10:05;;;;;;;4.45;1.42;;;9.70;99.90;;;;;;5038771;28;20041;-79
2023/05/24 03:12:31;;;;;;;5.88;1.70;;;9.70;99.90;;;;;;5057321;28;20105;-80
2023/05/24 03:14:58;;;;;;;7.95;1.75;;;9.70;99.90;;;;;;5039086;28;20139;-80
2023/05/24 03:17:26;;;;;;;7.03;1.90;;;9.60;99.90;;;;;;5038503;28;20045;-80
2023/05/24 03:19:53;;;;;;;4.50;1.60;;;9.60;99.90;;;;;;5039595;28;20047;-80
2023/05/24 03:22:20;;;;;;;5.15;1.52;;;9.60;99.90;;;;;;5038745;28;20422;-80
2023/05/24 03:24:47;;;;;;;6.15;1.70;;;9.60;99.90;;;;;;5022928;28;20043;-80
2023/05/24 03:30:05;;;;;;;7.38;1.98;;;9.50;99.90;;;;;;5038639;28;20049;-79
2023/05/24 03:32:38;;;;;;;10.10;1.90;;;9.50;99.90;;;;;;5039811;28;20383;-79
2023/05/24 03:35:06;;;;;;;5.53;1.60;;;9.40;99.90;;;;;;5039287;28;20056;-80
2023/05/24 03:37:34;;;;;;;8.13;1.70;;;9.40;99.90;;;;;;5022010;28;20099;-80
2023/05/24 03:40:03;;;;;;;12.02;2.38;;;9.40;99.90;;;;;;5056881;28;20463;-79
2023/05/24 03:42:40;;;;;;;5.55;1.60;;;9.30;99.90;;;;;;5038515;28;20045;-79
2023/05/24 03:45:08;;;;;;;6.53;1.75;;;9.20;99.90;;;;;;5039126;28;20374;-80
2023/05/24 03:47:37;;;;;;;5.18;1.50;;;9.20;99.90;;;;;;5039172;28;20068;-80
2023/05/24 03:50:05;;;;;;;7.82;1.73;;;9.20;99.90;;;;;;5038150;28;20107;-79
2023/05/24 03:52:31;;;;;;;9.68;1.75;;;9.10;99.90;;;;;;5038985;28;20049;-80
2023/05/24 03:54:58;;;;;;;4.93;1.60;;;9.00;99.90;;;;;;5056272;28;20069;-80
2023/05/24 03:57:25;;;;;;;4.40;1.60;;;9.00;99.90;;;;;;5038354;28;20479;-80
2023/05/24 03:59:52;;;;;;;10.90;1.95;;;9.00;99.90;;;;;;5039416;28;20059;-80
2023/05/24 04:02:19;;;;;;;6.10;1.60;;;9.00;99.90;;;;;;5038061;28;20036;-80
2023/05/24 04:04:45;;;;;;;6.05;1.75;;;9.00;99.90;;;;;;5038484;28;20056;-79
2023/05/24 04:07:15;;;;;;;6.82;2.00;;;8.90;99.90;;;;;;5056094;28;20086;-79
2023/05/24 04:09:42;;;;;;;6.03;1.77;;;8.90;99.90;;;;;;5037845;28;20049;-80
2023/05/24 04:12:08;;;;;;;5.35;1.67;;;8.90;99.90;;;;;;5038612;28;20090;-80
2023/05/24 04:14:35;;;;;;;11.70;1.67;;;8.90;99.90;;;;;;5038423;28;20053;-79
2023/05/24 04:17:05;;;;;;;6.60;1.55;;;8.90;99.90;;;;;;5021066;28;20445;-80
2023/05/24 04:19:32;;;;;;;5.15;1.63;;;8.90;99.90;;;;;;5038503;28;20059;-79
2023/05/24 04:21:58;;;;;;;9.68;1.95;;;8.90;99.90;;;;;;5022014;28;20041;-80
2023/05/24 04:24:25;;;;;;;5.10;1.73;;;8.90;99.90;;;;;;5037231;28;20057;-80
2023/05/24 04:26:53;;;;;;;7.60;1.67;;;8.90;99.90;;;;;;5038367;28;20422;-79
2023/05/24 04:29:20;;;;;;;7.90;1.67;;;8.90;99.90;;;;;;5037557;28;20067;-79
2023/05/24 04:31:47;;;;;;;12.35;1.80;;;8.90;99.90;;;;;;5038263;28;20471;-80
2023/05/24 04:34:14;;;;;;;10.52;2.05;;;8.90;99.90;;;;;;5037873;28;20080;-80
2023/05/24 04:36:41;;;;;;;6.65;2.05;;;8.90;99.90;;;;;;5037266;28;20478;-80
2023/05/24 04:39:10;;;;;;;7.00;1.73;;;8.90;99.90;;;;;;5038082;28;20094;-80
2023/05/24 04:41:37;;;;;;;7.78;1.90;;;8.90;99.90;;;;;;5062714;28;20127;-79
2023/05/24 04:44:04;;;;;;;10.15;2.08;;;8.90;99.90;;;;;;5073520;28;20124;-79
2023/05/24 04:49:16;;;;;;;13.55;2.30;;;9.10;99.90;;;;;;5073658;28;20110;-78
2023/05/24 04:51:43;;;;;;;6.32;1.98;;;9.20;99.90;;;;;;5074363;28;20074;-79
2023/05/24 04:54:10;;;;;;;8.68;2.17;;;9.30;99.90;;;;;;5075107;28;20119;-78
2023/05/24 04:56:40;;;;;;;5.18;2.08;;;9.30;99.90;;;;;;5074432;28;20036;-80
2023/05/24 04:59:08;;;;;;;6.55;1.90;;;9.50;99.90;;;;;;5074247;28;20044;-79
2023/05/24 05:01:35;;;;;;;5.07;1.77;;;9.60;99.90;;;;;;5075225;28;20063;-80
2023/05/24 05:04:03;;;;;;;8.77;1.90;;;9.70;99.90;;;;;;5073042;28;20056;-79
2023/05/24 05:06:36;;;;;;;10.18;2.13;;;9.80;99.90;;;;;;5075514;28;20065;-79
2023/05/24 05:09:03;;;;;;;7.25;2.25;;;10.00;99.90;;;;;;5074344;28;20044;-80
2023/05/24 05:11:30;;;;;;;12.63;2.65;;;10.10;99.90;;;;;;5074080;28;20055;-79
2023/05/24 05:13:57;;;;;;;7.45;2.40;;;10.20;99.90;;;;;;5074811;28;20048;-80
2023/05/24 05:16:24;;;;;;;12.10;2.58;;;10.40;99.90;;;;;;5073098;28;20077;-80
2023/05/24 05:18:51;;;;;;;7.63;2.70;;;10.50;99.90;;;;;;5074460;28;20049;-80
2023/05/24 05:21:17;;;;;;;8.85;2.90;;;10.60;99.90;;;;;;5074960;28;20455;-79
2023/05/24 05:23:44;;;;;;;10.30;3.00;;;10.80;99.90;;;;;;5073792;28;20036;-80
2023/05/24 05:26:11;;;;;;;8.43;2.83;;;10.90;99.90;;;;;;5075090;28;20036;-80
2023/05/24 05:28:38;;;;;;;9.30;2.70;;;11.10;99.90;;;;;;5074258;28;20044;-85
2023/05/24 05:31:05;;;;;;;11.23;3.35;;;11.20;99.90;;;;;;5056424;28;20047;-81
2023/05/24 05:33:31;;;;;;;11.80;3.05;;;11.30;99.90;;;;;;5074726;28;20082;-80
2023/05/24 05:35:58;;;;;;;11.38;3.72;;;11.40;99.90;;;;;;5073893;28;20049;-80
2023/05/24 05:38:25;;;;;;;15.95;3.20;;;11.60;99.90;;;;;;5074057;28;20087;-80
2023/05/24 05:40:52;;;;;;;14.88;3.47;;;11.60;99.90;;;;;;5073410;28;20140;-80
2023/05/24 05:43:18;;;;;;;11.27;3.67;;;11.80;99.90;;;;;;5072555;28;20041;-81
2023/05/24 05:45:45;;;;;;;14.77;3.72;;;11.90;99.90;;;;;;5074246;28;20040;-80
2023/05/24 05:48:13;;;;;;;11.10;3.30;;;12.00;99.90;;;;;;5074260;28;20489;-80
2023/05/24 05:50:40;;;;;;;21.38;4.40;;;12.10;99.90;;;;;;5073730;28;20489;-80
2023/05/24 05:53:07;;;;;;;8.43;3.15;;;12.30;99.90;;;;;;5073324;28;20102;-80
2023/05/24 05:55:33;;;;;;;15.35;4.20;;;12.40;99.90;;;;;;5073150;28;20049;-79
2023/05/24 05:58:00;;;;;;;13.07;3.90;;;12.50;99.90;;;;;;5073581;28;20048;-79
2023/05/24 06:00:27;;;;;;;10.60;3.40;;;12.50;99.90;;;;;;5073717;28;20131;-79
2023/05/24 06:02:54;;;;;;;12.50;3.97;;;12.60;99.90;;;;;;5072781;28;20080;-81
2023/05/24 06:05:21;;;;;;;16.52;4.65;;;12.80;99.90;;;;;;5074378;28;20040;-79
2023/05/24 06:10:18;;;;;;;9.40;3.53;;;13.00;99.90;;;;;;5072673;28;20041;-80
2023/05/24 06:12:45;;;;;;;13.70;3.95;;;13.10;99.90;;;;;;5056858;28;20045;-81
2023/05/24 06:15:12;;;;;;;13.55;4.20;;;13.20;99.90;;;;;;5073148;28;20052;-80
2023/05/24 06:20:28;;;;;;;14.02;3.97;;;13.40;99.90;;;;;;5074631;28;20086;-81
2023/05/24 06:22:56;;;;;;;18.92;4.63;;;13.50;99.90;;;;;;5072581;28;20040;-81
2023/05/24 06:25:23;;;;;;;15.95;4.25;;;13.60;99.90;;;;;;5056541;28;20057;-81
2023/05/24 06:30:19;;;;;;;12.70;3.90;;;13.80;99.90;;;;;;5072738;28;20393;-81
2023/05/24 06:32:46;;;;;;;13.05;4.20;;;14.00;99.90;;;;;;5077160;28;20040;-81
2023/05/24 06:35:13;;;;;;;14.25;4.13;;;14.10;99.90;;;;;;5077150;28;20057;-81
2023/05/24 06:37:42;;;;;;;15.50;4.63;;;14.10;99.90;;;;;;5076431;28;20040;-81
2023/05/24 06:40:09;;;;;;;13.27;4.18;;;14.20;99.90;;;;;;5075535;28;20106;-80
2023/05/24 06:42:36;;;;;;;20.38;5.00;;;14.20;99.90;;;;;;5039911;28;20452;-80
2023/05/24 06:45:02;;;;;;;17.17;4.43;;;14.20;99.90;;;;;;5040273;28;20052;-80
2023/05/24 06:50:15;;;;;;;14.70;4.93;;;14.30;99.90;;;;;;5056842;28;20534;-81
2023/05/24 06:52:42;;;;;;;15.55;4.63;;;14.40;99.90;;;;;;5040107;28;20170;-81
2023/05/24 06:55:09;;;;;;;17.23;4.38;;;14.60;99.90;;;;;;5057450;28;20045;-82
2023/05/24 06:57:36;;;;;;;15.15;4.22;;;14.70;99.90;;;;;;5039337;28;20041;-80
2023/05/24 07:00:08;;;;;;;19.42;4.63;;;14.80;99.90;;;;;;5040026;28;20077;-81
2023/05/24 07:02:35;;;;;;;17.20;5.15;;;14.90;99.90;;;;;;5038768;28;20377;-81
2023/05/24 07:05:02;;;;;;;21.95;5.40;;;15.10;99.90;;;;;;5039419;28;20349;-80
2023/05/24 07:07:31;;;;;;;23.35;4.82;;;15.20;99.90;;;;;;5042944;28;20040;-81
2023/05/24 07:09:57;;;;;;;17.08;3.65;;;15.30;99.90;;;;;;5038674;28;20136;-80
2023/05/24 07:12:24;;;;;;;16.38;4.47;;;15.20;99.90;;;;;;5039616;28;20068;-80
2023/05/24 07:14:51;;;;;;;14.93;3.58;;;15.20;99.90;;;;;;5056782;28;20503;-80
2023/05/24 07:17:19;;;;;;;20.55;3.97;;;15.30;99.90;;;;;;5056318;28;20443;-81
2023/05/24 07:19:45;;;;;;;13.65;3.53;;;15.40;99.90;;;;;;5039596;28;20053;-80
2023/05/24 07:22:12;;;;;;;20.10;4.50;;;15.50;99.90;;;;;;5056331;28;20052;-81
2023/05/24 07:24:39;;;;;;;21.45;4.05;;;15.60;99.90;;;;;;5039468;28;20040;-79
2023/05/24 07:27:06;;;;;;;14.20;3.92;;;15.70;99.90;;;;;;5057015;28;20427;-79
2023/05/24 07:29:32;;;;;;;15.90;4.13;;;15.90;99.90;;;;;;5038833;28;20041;-80
2023/05/24 07:31:59;;;;;;;13.32;4.22;;;16.00;99.90;;;;;;5039412;28;20107;-80
2023/05/24 07:34:28;;;;;;;17.48;4.60;;;16.00;99.90;;;;;;5056675;28;20045;-81
2023/05/24 07:36:59;;;;;;;19.27;4.68;;;16.00;99.90;;;;;;5049967;28;20468;-77
2023/05/24 07:39:26;;;;;;;15.88;3.70;;;16.10;99.90;;;;;;5046797;28;20055;-79
2023/05/24 07:41:52;;;;;;;20.13;4.95;;;16.00;99.90;;;;;;5060372;28;20080;-78
2023/05/24 07:44:19;;;;;;;21.40;4.32;;;16.00;99.90;;;;;;5065465;28;20075;-80
2023/05/24 07:49:32;;;;;;;15.63;4.05;;;16.40;99.90;;;;;;5056085;28;20049;-80
2023/05/24 07:51:59;;;;;;;15.77;4.30;;;16.50;99.90;;;;;;5055956;28;20348;-79
2023/05/24 07:54:26;;;;;;;18.33;4.28;;;16.60;99.90;;;;;;5056398;28;20037;-80
2023/05/24 07:56:53;;;;;;;12.90;3.90;;;16.80;99.90;;;;;;5055657;28;20487;-79
2023/05/24 07:59:20;;;;;;;17.13;3.88;;;17.00;99.90;;;;;;5056893;28;20046;-79
2023/05/24 08:01:47;;;;;;;21.42;4.82;;;17.10;99.90;;;;;;5055518;28;20060;-79
2023/05/24 08:04:13;;;;;;;14.75;4.15;;;17.10;99.90;;;;;;5054466;28;20048;-79
2023/05/24 08:06:40;;;;;;;13.93;4.00;;;17.40;99.90;;;;;;5056377;28;20052;-80
2023/05/24 08:09:07;;;;;;;21.67;4.75;;;17.60;99.90;;;;;;5054479;28;20049;-79
2023/05/24 08:11:34;;;;;;;15.65;4.00;;;17.50;99.90;;;;;;5064419;28;20124;-79
2023/05/24 08:14:01;;;;;;;13.05;4.28;;;17.50;99.90;;;;;;5071429;28;20128;-79
2023/05/24 08:16:28;;;;;;;11.60;3.67;;;17.60;99.90;;;;;;5075126;28;20501;-78
2023/05/24 08:18:55;;;;;;;16.23;4.50;;;17.60;99.90;;;;;;5058654;28;20082;-78
2023/05/24 08:21:22;;;;;;;16.17;3.72;;;17.60;99.90;;;;;;5076248;28;20075;-78
2023/05/24 08:23:49;;;;;;;15.13;4.55;;;17.70;99.90;;;;;;5074870;28;20048;-79
2023/05/24 08:26:18;;;;;;;12.02;3.83;;;17.80;99.90;;;;;;5075817;28;20041;-79
2023/05/24 08:28:45;;;;;;;21.65;4.90;;;17.90;99.90;;;;;;5076424;28;20355;-79
2023/05/24 08:31:11;;;;;;;18.65;4.70;;;18.00;99.90;;;;;;5069357;28;20041;-81
2023/05/24 08:33:39;;;;;;;11.05;3.88;;;18.10;99.90;;;;;;5066150;28;20455;-79
2023/05/24 08:36:06;;;;;;;16.60;4.50;;;18.20;99.90;;;;;;5065416;28;20047;-80
2023/05/24 08:38:33;;;;;;;15.55;4.38;;;18.50;99.90;;;;;;5068875;28;20539;-79
2023/05/24 08:41:00;;;;;;;11.02;3.95;;;18.60;99.90;;;;;;5072406;28;20045;-79
2023/05/24 08:43:26;;;;;;;22.63;4.18;;;18.40;99.90;;;;;;5072832;28;20471;-79
2023/05/24 08:45:55;;;;;;;15.27;3.80;;;18.40;99.90;;;;;;5072981;28;20040;-79
2023/05/24 08:48:22;;;;;;;11.20;3.65;;;18.50;99.90;;;;;;5073076;28;20049;-79
2023/05/24 08:50:50;;;;;;;12.30;3.83;;;18.70;99.90;;;;;;5072189;28;20044;-79
2023/05/24 08:53:16;;;;;;;17.75;3.88;;;18.80;99.90;;;;;;5072228;28;20535;-79
2023/05/24 08:55:43;;;;;;;16.20;4.18;;;18.90;99.90;;;;;;5073650;28;20149;-79
2023/05/24 08:58:10;;;;;;;15.77;3.75;;;18.90;99.90;;;;;;5073766;28;20056;-80
2023/05/24 09:00:37;;;;;;;16.80;4.40;;;19.10;99.90;;;;;;5073581;28;20498;-80
2023/05/24 09:03:04;;;;;;;19.48;4.00;;;19.10;99.90;;;;;;5072850;28;20044;-80
2023/05/24 09:05:31;;;;;;;14.65;3.70;;;19.10;99.90;;;;;;5073617;28;20044;-79
2023/05/24 09:07:58;;;;;;;12.55;3.47;;;19.10;99.90;;;;;;5074989;28;20036;-79
2023/05/24 09:10:25;;;;;;;13.18;3.42;;;19.10;99.90;;;;;;5072936;28;20139;-79
2023/05/24 09:12:51;;;;;;;14.70;3.92;;;19.30;99.90;;;;;;5074062;28;20040;-79
2023/05/24 09:15:18;;;;;;;16.63;4.00;;;19.40;99.90;;;;;;5074102;28;20524;-79
2023/05/24 09:17:45;;;;;;;14.38;3.60;;;19.60;99.90;;;;;;5073814;28;20049;-79
2023/05/24 09:20:12;;;;;;;21.13;4.45;;;19.50;99.90;;;;;;5073910;28;20059;-79
2023/05/24 09:22:38;;;;;;;16.00;3.72;;;19.50;99.90;;;;;;5071923;28;20090;-79
2023/05/24 09:25:08;;;;;;;13.85;3.92;;;19.40;99.90;;;;;;5074250;28;20105;-79
2023/05/24 09:27:35;;;;;;;14.43;3.78;;;19.50;99.90;;;;;;5074615;28;20380;-80
2023/05/24 09:30:02;;;;;;;15.80;3.83;;;19.70;99.90;;;;;;5073767;28;20040;-79
2023/05/24 09:32:29;;;;;;;14.95;4.18;;;19.70;99.90;;;;;;5074363;28;20075;-79
2023/05/24 09:34:56;;;;;;;14.65;3.65;;;19.80;99.90;;;;;;5073050;28;20036;-79
2023/05/24 09:37:23;;;;;;;19.00;4.53;;;19.90;99.90;;;;;;5073161;28;20283;-79
2023/05/24 09:39:58;;;;;;;16.35;3.88;;;20.10;99.90;;;;;;5073481;28;20040;-79
2023/05/24 09:42:26;;;;;;;19.67;4.55;;;20.40;99.90;;;;;;5054433;28;20087;-79
2023/05/24 09:44:53;;;;;;;13.43;3.85;;;20.50;99.90;;;;;;5053659;28;20037;-79
2023/05/24 09:47:20;;;;;;;13.20;4.35;;;20.30;99.90;;;;;;5054451;28;20427;-79
2023/05/24 09:49:47;;;;;;;14.63;4.15;;;20.40;99.90;;;;;;5040596;28;20045;-79
2023/05/24 09:52:15;;;;;;;14.73;4.03;;;20.40;99.90;;;;;;5016964;28;20460;-79
2023/05/24 09:54:42;;;;;;;13.95;3.80;;;20.50;99.90;;;;;;5034038;28;20353;-78
2023/05/24 09:57:10;;;;;;;11.23;3.67;;;20.80;99.90;;;;;;5033017;28;20364;-78
2023/05/24 09:59:36;;;;;;;14.15;3.95;;;20.70;99.90;;;;;;5034123;28;20045;-78
2023/05/24 10:02:03;;;;;;;11.88;3.30;;;21.00;99.90;;;;;;5034074;28;20033;-78
2023/05/24 10:04:30;;;;;;;13.27;3.85;;;21.10;99.90;;;;;;5033119;28;20073;-77
2023/05/24 10:06:56;;;;;;;11.80;3.45;;;21.20;99.90;;;;;;5038170;28;20042;-78
2023/05/24 10:09:23;;;;;;;12.57;3.53;;;21.20;99.90;;;;;;5019500;28;20107;-78
2023/05/24 10:11:50;;;;;;;15.20;3.72;;;21.50;99.90;;;;;;5037312;28;20196;-78
2023/05/24 10:14:16;;;;;;;14.68;4.00;;;21.60;99.90;;;;;;5037629;28;20033;-78
2023/05/24 10:16:43;;;;;;;11.45;4.28;;;21.70;99.90;;;;;;5019463;28;20045;-78
2023/05/24 10:19:10;;;;;;;13.05;3.97;;;21.80;99.90;;;;;;5037987;28;20137;-78
2023/05/24 10:21:37;;;;;;;14.15;4.40;;;21.90;99.90;;;;;;5038028;28;20491;-78
2023/05/24 10:24:05;;;;;;;12.77;4.00;;;22.10;99.90;;;;;;5036346;28;20120;-79
2023/05/24 10:26:35;;;;;;;13.88;3.72;;;22.20;99.90;;;;;;5020653;28;20045;-79
2023/05/24 10:29:01;;;;;;;12.65;3.65;;;22.30;99.90;;;;;;5036770;28;20116;-80
2023/05/24 10:31:28;;;;;;;17.35;5.10;;;22.20;99.90;;;;;;5020430;28;20049;-77
2023/05/24 10:33:55;;;;;;;12.52;4.85;;;22.50;99.90;;;;;;5019676;28;20052;-80
2023/05/24 10:36:33;;;;;;;11.73;3.80;;;22.80;99.90;;;;;;5036479;28;20045;-77
2023/05/24 10:39:00;;;;;;;14.40;5.05;;;22.90;97.00;;;;;;5019984;28;20041;-77
2023/05/24 10:41:27;;;;;;;14.30;4.18;;;22.70;98.00;;;;;;5037061;28;20140;-77
2023/05/24 10:43:53;;;;;;;11.82;4.72;;;22.80;96.40;;;;;;5018790;28;20111;-76
2023/05/24 10:46:35;;;;;;;;;;;23.10;96.30;;;;;;5037653;28;20076;-77
2023/05/24 10:49:04;;;;;;;16.55;6.05;;;23.00;95.10;;;;;;5019009;28;20458;-78
2023/05/24 10:51:31;;;;;;;14.30;5.32;;;23.40;94.50;;;;;;5019890;28;20038;-77
2023/05/24 10:53:58;;;;;;;15.20;4.70;;;23.50;92.40;;;;;;5036948;28;20045;-78
2023/05/24 10:56:25;;;;;;;14.52;4.75;;;23.80;91.40;;;;;;5019017;28;20057;-78
2023/05/24 10:58:52;;;;;;;16.17;5.80;;;24.50;93.10;;;;;;5020177;28;20116;-78
2023/05/24 11:01:18;;;;;;;11.85;4.40;;;24.60;89.90;;;;;;5036773;28;20045;-77
2023/05/24 11:03:45;;;;;;;15.70;5.03;;;24.80;87.40;;;;;;5018217;28;20522;-78
2023/05/24 11:06:13;;;;;;;12.18;4.45;;;24.80;88.50;;;;;;5037296;28;20123;-79
2023/05/24 11:08:42;;;;;;;11.35;4.35;;;25.00;85.70;;;;;;5019743;28;20080;-78
2023/05/24 11:11:09;;;;;;;14.45;5.82;;;25.10;84.40;;;;;;5037194;28;20440;-78
2023/05/24 11:13:38;;;;;;;14.95;5.40;;;24.90;84.90;;;;;;5036688;28;20052;-78
2023/05/24 11:16:05;;;;;;;15.63;5.22;;;25.40;85.90;;;;;;5035033;28;20124;-79
2023/05/24 11:18:37;;;;;;;19.45;5.65;;;25.60;84.00;;;;;;5019579;28;20045;-78
2023/05/24 11:21:03;;;;;;;14.07;5.07;;;25.60;84.90;;;;;;5037249;28;20491;-77
2023/05/24 11:23:30;;;;;;;19.15;5.40;;;25.90;83.20;;;;;;5035676;28;20047;-78
2023/05/24 11:25:59;;;;;;;12.27;4.90;;;26.00;79.70;;;;;;5060726;28;20045;-83
2023/05/24 11:28:26;;;;;;;15.77;5.57;;;26.10;81.90;;;;;;5049286;28;20059;-82
2023/05/24 11:30:53;;;;;;;13.23;4.90;;;26.40;80.40;;;;;;5018580;28;20037;-83
2023/05/24 11:33:21;;;;;;;13.38;5.10;;;26.50;79.90;;;;;;5035204;28;20044;-84
2023/05/24 11:35:49;;;;;;;15.20;5.03;;;26.60;78.80;;;;;;5002526;28;20053;-84
2023/05/24 11:38:17;;;;;;;14.88;4.55;;;26.50;78.20;;;;;;5036731;28;20076;-80
2023/05/24 11:40:44;;;;;;;15.65;4.80;;;27.00;77.40;;;;;;5039887;28;20144;-80
2023/05/24 11:43:11;;;;;;;16.52;4.85;;;27.20;75.30;;;;;;5032218;28;20460;-79
2023/05/24 11:45:40;;;;;;;12.77;4.53;;;27.00;74.10;;;;;;5037173;28;20527;-80
2023/05/24 11:48:07;;;;;;;12.05;4.55;;;26.60;78.10;;;;;;5037516;28;20045;-79
2023/05/24 11:50:34;;;;;;;12.30;4.25;;;27.20;74.90;;;;;;5038076;28;20037;-80
2023/05/24 11:53:14;;;;;;;11.90;4.83;;;27.20;76.20;;;;;;5055370;28;20661;-80
2023/05/24 11:55:41;;;;;;;13.88;4.30;;;27.00;74.30;;;;;;5037367;28;20041;-80
2023/05/24 11:58:08;;;;;;;13.32;5.03;;;27.10;76.60;;;;;;5051767;28;20045;-80
2023/05/24 12:00:35;;;;;;;11.00;4.88;;;26.90;73.50;;;;;;5038417;28;20518;-80
2023/05/24 12:03:06;;;;;;;15.60;5.47;;;27.10;73.20;;;;;;5036877;28;20460;-81
2023/05/24 12:05:33;;;;;;;11.75;4.47;;;27.20;73.20;;;;;;5038347;28;20059;-80
2023/05/24 12:08:00;;;;;;;15.30;4.63;;;27.30;72.50;;;;;;5055327;28;20032;-80
2023/05/24 12:10:26;;;;;;;12.27;4.53;;;27.70;74.00;;;;;;5036729;28;20379;-80
2023/05/24 12:12:53;;;;;;;13.05;4.45;;;28.40;72.30;;;;;;5055652;28;20121;-80
2023/05/24 12:15:21;;;;;;;12.55;4.47;;;28.50;70.70;;;;;;5038561;28;20076;-80
2023/05/24 12:17:52;;;;;;;17.42;5.00;;;28.50;70.30;;;;;;5029051;28;20060;-79
2023/05/24 12:20:20;;;;;;;14.73;4.75;;;28.30;69.00;;;;;;5030062;28;20372;-79
2023/05/24 12:22:48;;;;;;;14.38;4.82;;;28.10;70.20;;;;;;5045691;28;20033;-79
2023/05/24 12:25:15;;;;;;;14.65;4.50;;;28.20;69.80;;;;;;5025795;28;20121;-79
2023/05/24 12:27:46;;;;;;;14.82;4.90;;;28.80;70.30;;;;;;5045821;28;20041;-79
2023/05/24 12:30:19;;;;;;;12.65;4.28;;;29.40;70.40;;;;;;5053883;28;20041;-80
2023/05/24 12:32:46;;;;;;;13.30;4.68;;;29.60;67.20;;;;;;5054979;28;20045;-80
2023/05/24 12:35:13;;;;;;;12.80;4.60;;;28.50;66.40;;;;;;5046591;28;20040;-83
2023/05/24 12:37:42;;;;;;;12.23;4.45;;;27.60;68.50;;;;;;5034805;28;20064;-84
2023/05/24 12:40:09;;;;;;;12.20;4.75;;;28.00;69.60;;;;;;5037117;28;20037;-79
2023/05/24 12:42:35;;;;;;;16.77;4.85;;;28.60;68.50;;;;;;5065461;28;20479;-82
2023/05/24 12:45:02;;;;;;;14.18;4.35;;;28.60;66.90;;;;;;5075610;28;20462;-80
2023/05/24 12:50:15;;;;;;;11.88;4.35;;;28.60;68.60;;;;;;5073886;28;20083;-80
2023/05/24 12:52:45;;;;;;;10.77;3.97;;;28.50;67.60;;;;;;5074147;28;20106;-80
2023/05/24 12:55:12;;;;;;;9.63;3.88;;;28.50;66.30;;;;;;5074934;28;20041;-81
2023/05/24 12:57:39;;;;;;;12.50;4.65;;;28.80;68.50;;;;;;5073375;28;20045;-80
2023/05/24 13:00:06;;;;;;;12.05;4.60;;;29.10;66.10;;;;;;5057638;28;20445;-80
2023/05/24 13:02:33;;;;;;;12.13;4.38;;;29.20;66.40;;;;;;5073746;28;20041;-81
2023/05/24 13:05:00;;;;;;;12.38;4.82;;;28.80;67.00;;;;;;5073998;28;20063;-80
2023/05/24 13:07:27;;;;;;;12.15;4.25;;;28.80;68.10;;;;;;5074561;28;20044;-81
2023/05/24 13:09:53;;;;;;;11.38;4.20;;;28.40;66.90;;;;;;5073776;28;20044;-80
2023/05/24 13:12:20;;;;;;;9.90;4.15;;;28.60;68.70;;;;;;5074795;28;20049;-80
2023/05/24 13:14:47;;;;;;;10.50;4.07;;;28.60;67.80;;;;;;5073892;28;20470;-80